createdAt,value
2018-09-23T00:02:40.245Z,11.30
2018-09-23T00:07:43.363Z,11.20
2018-09-23T00:12:46.453Z,11.20
2018-09-23T00:17:49.551Z,11.10
2018-09-23T00:22:52.703Z,11.10
2018-09-23T00:27:55.816Z,11.10
2018-09-23T00:32:58.888Z,11.10
2018-09-23T00:38:01.984Z,11.10
2018-09-23T00:43:05.190Z,11.10
2018-09-23T00:48:08.630Z,11.10
2018-09-23T00:53:12.573Z,11.10
2018-09-23T00:58:15.692Z,11.10
2018-09-23T01:03:18.825Z,11.10
2018-09-23T01:08:21.899Z,11.10
2018-09-23T01:13:24.969Z,11.10
2018-09-23T01:18:28.070Z,11.10
2018-09-23T01:23:31.122Z,11.00
2018-09-23T01:28:34.356Z,10.90
2018-09-23T01:33:37.460Z,10.90
2018-09-23T01:38:40.547Z,10.90
2018-09-23T01:43:43.628Z,10.90
2018-09-23T01:48:46.695Z,10.90
2018-09-23T01:53:49.793Z,10.90
2018-09-23T01:58:53.049Z,11.00
2018-09-23T02:03:56.117Z,10.90
2018-09-23T02:08:59.213Z,10.80
2018-09-23T02:14:02.338Z,10.80
2018-09-23T02:19:06.189Z,10.70
2018-09-23T02:24:09.379Z,10.60
2018-09-23T02:29:12.516Z,10.50
2018-09-23T02:34:15.833Z,10.40
2018-09-23T02:39:18.958Z,10.40
2018-09-23T02:44:22.062Z,10.30
2018-09-23T02:49:25.198Z,10.10
2018-09-23T02:54:28.438Z,10.10
2018-09-23T02:59:31.505Z,10.10
2018-09-23T03:04:34.606Z,10.10
2018-09-23T03:09:37.708Z,10.10
2018-09-23T03:14:40.808Z,10.00
2018-09-23T03:19:43.884Z,10.00
2018-09-23T03:24:46.961Z,10.00
2018-09-23T03:29:50.146Z,10.00
2018-09-23T03:34:53.262Z,10.00
2018-09-23T03:39:56.401Z,10.00
2018-09-23T03:44:59.517Z,10.10
2018-09-23T03:50:02.667Z,10.10
2018-09-23T03:55:05.733Z,10.20
2018-09-23T04:00:08.835Z,10.20
2018-09-23T04:05:11.915Z,10.30
2018-09-23T04:10:15.020Z,10.30
2018-09-23T04:15:18.099Z,10.20
2018-09-23T04:20:21.162Z,10.10
2018-09-23T04:25:24.200Z,10.10
2018-09-23T04:30:27.312Z,10.00
2018-09-23T04:35:30.402Z,10.00
2018-09-23T04:40:33.464Z,9.90
2018-09-23T04:45:36.509Z,9.90
2018-09-23T04:50:39.542Z,9.90
2018-09-23T04:55:42.590Z,10.00
2018-09-23T05:00:45.661Z,10.10
2018-09-23T05:05:48.875Z,10.10
2018-09-23T05:10:51.992Z,10.20
2018-09-23T05:15:55.125Z,10.30
2018-09-23T05:20:58.236Z,10.40
2018-09-23T05:26:01.293Z,10.40
2018-09-23T05:31:04.492Z,10.50
2018-09-23T05:36:07.583Z,10.60
2018-09-23T05:41:10.734Z,10.60
2018-09-23T05:46:13.847Z,10.70
2018-09-23T05:51:16.890Z,10.80
2018-09-23T05:56:19.996Z,10.80
2018-09-23T06:01:23.097Z,11.00
2018-09-23T06:06:26.169Z,11.10
2018-09-23T06:11:29.339Z,11.20
2018-09-23T06:16:32.438Z,11.30
2018-09-23T06:21:35.499Z,11.50
2018-09-23T06:26:38.616Z,11.60
2018-09-23T06:31:41.700Z,11.70
2018-09-23T06:36:44.779Z,11.70
2018-09-23T06:41:47.971Z,11.70
2018-09-23T06:46:51.098Z,11.90
2018-09-23T06:51:54.297Z,12.00
2018-09-23T06:56:57.452Z,12.10
2018-09-23T07:02:00.542Z,12.30
2018-09-23T07:07:03.601Z,12.40
2018-09-23T07:12:06.753Z,12.60
2018-09-23T07:17:10.011Z,12.70
2018-09-23T07:22:13.106Z,12.80
2018-09-23T07:27:16.413Z,12.90
2018-09-23T07:32:19.621Z,13.30
2018-09-23T07:37:22.725Z,13.50
2018-09-23T07:42:25.969Z,13.50
2018-09-23T07:47:29.119Z,13.60
2018-09-23T07:52:32.281Z,13.70
2018-09-23T07:57:35.349Z,13.90
2018-09-23T08:02:38.465Z,14.00
2018-09-23T08:07:41.556Z,14.10
2018-09-23T08:12:44.900Z,14.00
2018-09-23T08:17:47.895Z,14.10
2018-09-23T08:22:51.094Z,14.00
2018-09-23T08:27:54.259Z,14.10
2018-09-23T08:32:57.480Z,14.10
2018-09-23T08:38:00.556Z,14.20
2018-09-23T08:43:03.652Z,14.20
2018-09-23T08:48:07.083Z,14.20
2018-09-23T08:53:10.067Z,14.30
2018-09-23T08:58:13.242Z,14.30
2018-09-23T09:03:16.375Z,14.50
2018-09-23T09:13:29.142Z,14.60
2018-09-23T09:18:32.319Z,14.70
2018-09-23T09:23:35.365Z,14.90
2018-09-23T09:28:38.536Z,15.10
2018-09-23T09:33:42.009Z,15.10
2018-09-23T09:38:45.515Z,15.10
2018-09-23T09:43:48.683Z,15.30
2018-09-23T09:48:51.876Z,15.40
2018-09-23T09:53:55.041Z,15.60
2018-09-23T09:58:58.325Z,15.60
2018-09-23T10:04:01.499Z,15.50
2018-09-23T10:09:07.063Z,15.50
2018-09-23T10:14:10.260Z,15.40
2018-09-23T10:19:13.415Z,15.50
2018-09-23T10:24:16.497Z,15.50
2018-09-23T10:29:19.593Z,15.50
2018-09-23T10:34:22.750Z,15.60
2018-09-23T10:39:25.897Z,15.70
2018-09-23T10:44:29.123Z,15.80
2018-09-23T10:49:32.263Z,15.80
2018-09-23T10:54:35.667Z,15.70
2018-09-23T10:59:39.063Z,15.70
2018-09-23T11:04:42.304Z,15.60
2018-09-23T11:09:45.455Z,15.80
2018-09-23T11:14:49.597Z,15.80
2018-09-23T11:19:52.895Z,15.70
2018-09-23T11:24:56.138Z,15.60
2018-09-23T11:29:59.231Z,15.60
2018-09-23T11:35:02.323Z,15.40
2018-09-23T11:40:05.649Z,15.30
2018-09-23T11:45:09.116Z,15.20
2018-09-23T11:50:12.260Z,14.90
2018-09-23T11:55:15.384Z,14.80
2018-09-23T12:00:18.505Z,14.60
2018-09-23T12:05:21.664Z,14.60
2018-09-23T12:10:25.969Z,14.40
2018-09-23T12:15:29.115Z,14.20
2018-09-23T12:20:32.195Z,13.80
2018-09-23T12:25:35.337Z,13.70
2018-09-23T12:30:38.312Z,13.50
2018-09-23T12:35:41.388Z,13.30
2018-09-23T12:40:44.528Z,13.20
2018-09-23T12:45:47.647Z,13.10
2018-09-23T12:50:50.761Z,13.00
2018-09-23T12:55:53.999Z,12.90
2018-09-23T13:00:57.046Z,12.70
2018-09-23T13:06:00.101Z,12.60
2018-09-23T13:11:03.802Z,12.50
2018-09-23T13:16:06.935Z,12.30
2018-09-23T13:21:09.988Z,12.30
2018-09-23T13:26:13.198Z,12.20
2018-09-23T13:31:16.302Z,12.10
2018-09-23T13:36:19.393Z,12.00
2018-09-23T13:41:22.652Z,12.00
2018-09-23T13:46:26.002Z,11.90
2018-09-23T13:51:30.196Z,11.80
2018-09-23T13:56:33.407Z,11.70
2018-09-23T14:01:36.541Z,11.70
2018-09-23T14:06:39.640Z,11.70
2018-09-23T14:11:42.903Z,11.60
2018-09-23T14:16:46.245Z,11.50
2018-09-23T14:21:49.545Z,11.50
2018-09-23T14:26:52.611Z,11.50
2018-09-23T14:31:55.728Z,11.50
2018-09-23T14:36:58.842Z,11.40
2018-09-23T14:42:01.949Z,11.40
2018-09-23T14:47:05.108Z,11.30
2018-09-23T14:52:10.209Z,11.30
2018-09-23T14:57:13.458Z,11.40
2018-09-23T15:02:16.606Z,11.30
2018-09-23T15:07:19.712Z,11.30
2018-09-23T15:12:23.000Z,11.40
2018-09-23T15:17:26.232Z,11.20
2018-09-23T15:22:29.393Z,11.20
2018-09-23T15:27:32.545Z,11.20
2018-09-23T15:32:35.617Z,11.10
2018-09-23T15:37:38.723Z,11.10
2018-09-23T15:42:41.876Z,11.00
2018-09-23T15:47:44.980Z,11.00
2018-09-23T15:52:48.164Z,11.00
2018-09-23T15:57:51.346Z,10.90
2018-09-23T16:02:54.436Z,10.80
2018-09-23T16:07:57.501Z,10.80
2018-09-23T16:13:00.622Z,10.70
2018-09-23T16:18:03.739Z,10.70
2018-09-23T16:23:06.833Z,10.60
2018-09-23T16:28:10.032Z,10.60
2018-09-23T16:33:13.143Z,10.50
2018-09-23T16:38:16.218Z,10.50
2018-09-23T16:43:20.256Z,10.40
2018-09-23T16:48:23.322Z,10.40
2018-09-23T16:53:26.574Z,10.30
2018-09-23T16:58:29.752Z,10.40
2018-09-23T17:03:32.888Z,10.40
2018-09-23T17:08:36.042Z,10.30
2018-09-23T17:13:39.133Z,10.30
2018-09-23T17:18:42.205Z,10.30
2018-09-23T17:23:45.281Z,10.20
2018-09-23T17:28:48.493Z,10.20
2018-09-23T17:33:51.554Z,10.10
2018-09-23T17:38:54.620Z,10.00
2018-09-23T17:43:57.764Z,9.90
2018-09-23T17:49:01.005Z,9.90
2018-09-23T17:54:04.088Z,10.00
2018-09-23T17:59:07.315Z,9.90
2018-09-23T18:04:10.370Z,9.90
2018-09-23T18:09:13.868Z,10.00
2018-09-23T18:14:17.004Z,10.00
2018-09-23T18:19:20.235Z,10.00
2018-09-23T18:24:23.348Z,9.90
2018-09-23T18:29:26.489Z,9.80
2018-09-23T18:34:29.549Z,9.70
2018-09-23T18:39:32.675Z,9.70
2018-09-23T18:44:35.911Z,9.60
2018-09-23T18:49:38.987Z,9.60
2018-09-23T18:54:47.707Z,9.50
2018-09-23T18:59:50.765Z,9.30
2018-09-23T19:04:54.365Z,9.20
2018-09-23T19:09:57.541Z,9.20
2018-09-23T19:15:00.719Z,9.10
2018-09-23T19:20:09.261Z,9.00
2018-09-23T19:25:12.376Z,9.00
2018-09-23T19:30:15.521Z,9.00
2018-09-23T19:35:18.651Z,9.00
2018-09-23T19:40:22.325Z,9.00
2018-09-23T19:45:25.466Z,9.00
2018-09-23T19:50:28.640Z,9.00
2018-09-23T19:55:31.771Z,9.00
2018-09-23T20:00:34.817Z,9.00
2018-09-23T20:05:37.976Z,9.00
2018-09-23T20:10:41.110Z,9.00
2018-09-23T20:15:44.249Z,9.10
2018-09-23T20:20:47.503Z,9.10
2018-09-23T20:25:50.658Z,9.20
2018-09-23T20:30:53.773Z,9.20
2018-09-23T20:35:58.125Z,9.20
2018-09-23T20:41:01.317Z,9.20
2018-09-23T20:46:05.424Z,9.20
2018-09-23T20:51:08.494Z,9.20
2018-09-23T20:56:11.914Z,9.20
2018-09-23T21:01:15.925Z,9.20
2018-09-23T21:06:19.052Z,9.20
2018-09-23T21:11:22.138Z,9.20
2018-09-23T21:16:25.247Z,9.20
2018-09-23T21:21:28.345Z,9.20
2018-09-23T21:26:31.440Z,9.20
2018-09-23T21:31:34.651Z,9.20
2018-09-23T21:36:38.731Z,9.20
2018-09-23T21:41:41.809Z,9.00
2018-09-23T21:46:44.942Z,9.00
2018-09-23T21:51:47.997Z,9.00
2018-09-23T21:56:51.279Z,9.00
2018-09-23T22:01:54.385Z,8.90
2018-09-23T22:06:57.545Z,9.00
2018-09-23T22:12:00.712Z,9.00
2018-09-23T22:17:03.869Z,9.00
2018-09-23T22:22:06.971Z,9.00
2018-09-23T22:27:10.132Z,9.10
2018-09-23T22:32:13.325Z,9.10
2018-09-23T22:37:16.416Z,9.20
2018-09-23T22:42:19.573Z,9.20
2018-09-23T22:47:22.952Z,9.20
2018-09-23T22:52:26.167Z,9.20
2018-09-23T22:57:29.460Z,9.30
2018-09-23T23:02:32.534Z,9.40
2018-09-23T23:07:35.825Z,9.30
2018-09-23T23:12:39.034Z,9.30
2018-09-23T23:17:42.174Z,9.30
2018-09-23T23:22:45.371Z,9.20
2018-09-23T23:27:48.485Z,9.10
2018-09-23T23:32:51.591Z,9.10
2018-09-23T23:37:54.768Z,9.10
2018-09-23T23:42:57.978Z,9.10
2018-09-23T23:48:01.369Z,9.00
2018-09-23T23:53:04.497Z,9.00
2018-09-23T23:58:07.544Z,9.10
